createdAt,value
2022-10-11T00:00:59.170Z,75.91
2022-10-11T00:02:01.534Z,76.19
2022-10-11T00:03:05.783Z,76.25
2022-10-11T00:04:08.266Z,75.92
2022-10-11T00:05:10.857Z,75.98
2022-10-11T00:06:13.084Z,76.12
2022-10-11T00:07:15.272Z,76.08
2022-10-11T00:08:17.668Z,76.00
2022-10-11T00:09:19.975Z,76.45
2022-10-11T00:10:22.261Z,76.53
2022-10-11T00:11:24.571Z,76.75
2022-10-11T00:12:26.765Z,76.78
2022-10-11T00:13:29.625Z,76.49
2022-10-11T00:14:34.103Z,76.67
2022-10-11T00:15:36.408Z,76.99
2022-10-11T00:16:40.994Z,77.09
2022-10-11T00:17:43.886Z,76.79
2022-10-11T00:18:46.396Z,76.92
2022-10-11T00:19:48.965Z,76.61
2022-10-11T00:20:51.164Z,76.81
2022-10-11T00:21:53.575Z,77.12
2022-10-11T00:22:56.007Z,77.31
2022-10-11T00:23:58.461Z,76.83
2022-10-11T00:25:00.846Z,77.00
2022-10-11T00:26:05.735Z,76.87
2022-10-11T00:27:08.314Z,76.98
2022-10-11T00:28:10.712Z,76.88
2022-10-11T00:29:13.053Z,76.91
2022-10-11T00:30:15.688Z,76.87
2022-10-11T00:31:18.338Z,76.97
2022-10-11T00:32:20.737Z,76.95
2022-10-11T00:33:22.986Z,76.81
2022-10-11T00:34:25.690Z,76.78
2022-10-11T00:35:28.077Z,76.97
2022-10-11T00:36:30.260Z,76.96
2022-10-11T00:37:37.010Z,76.59
2022-10-11T00:38:39.423Z,76.85
2022-10-11T00:39:41.754Z,76.95
2022-10-11T00:40:44.471Z,76.68
2022-10-11T00:41:47.875Z,76.72
2022-10-11T00:42:50.265Z,77.26
2022-10-11T00:44:16.342Z,77.16
2022-10-11T00:45:27.719Z,77.08
2022-10-11T00:46:31.192Z,77.04
2022-10-11T00:47:33.424Z,77.14
2022-10-11T00:48:44.673Z,77.20
2022-10-11T00:49:57.870Z,77.15
2022-10-11T00:51:03.014Z,77.32
2022-10-11T00:52:17.134Z,77.43
2022-10-11T00:53:19.599Z,77.57
2022-10-11T00:54:25.677Z,77.73
2022-10-11T00:55:35.129Z,77.63
2022-10-11T00:56:39.904Z,77.60
2022-10-11T00:57:46.102Z,77.65
2022-10-11T00:58:48.640Z,77.95
2022-10-11T00:59:55.085Z,78.13
2022-10-11T01:00:57.919Z,78.64
2022-10-11T01:02:00.435Z,78.55
2022-10-11T01:03:04.828Z,78.35
2022-10-11T01:04:07.065Z,78.04
2022-10-11T01:05:28.631Z,77.78
2022-10-11T01:06:33.452Z,77.70
2022-10-11T01:07:37.804Z,77.91
2022-10-11T01:08:40.270Z,78.08
2022-10-11T01:09:42.425Z,77.95
2022-10-11T01:10:44.962Z,78.31
2022-10-11T01:11:48.411Z,78.27
2022-10-11T01:13:18.300Z,78.54
2022-10-11T01:14:20.571Z,78.47
2022-10-11T01:15:44.603Z,78.49
2022-10-11T01:17:01.580Z,78.48
2022-10-11T01:18:12.679Z,78.40
2022-10-11T01:19:14.922Z,78.56
2022-10-11T01:20:40.716Z,78.57
2022-10-11T01:21:57.645Z,78.62
2022-10-11T01:23:12.102Z,78.77
2022-10-11T01:24:46.777Z,78.72
2022-10-11T01:26:16.860Z,78.78
2022-10-11T01:27:40.973Z,79.22
2022-10-11T01:29:01.232Z,79.14
2022-10-11T01:30:33.065Z,78.99
2022-10-11T01:31:43.043Z,78.89
2022-10-11T01:33:16.539Z,79.14
2022-10-11T01:34:58.569Z,79.24
2022-10-11T01:36:27.705Z,79.37
2022-10-11T01:37:37.708Z,79.62
2022-10-11T01:39:06.739Z,79.96
2022-10-11T01:40:17.603Z,80.23
2022-10-11T01:41:31.271Z,80.33
2022-10-11T01:42:36.400Z,80.32
2022-10-11T01:43:41.112Z,80.58
2022-10-11T01:44:48.135Z,80.36
2022-10-11T01:45:52.344Z,80.49
2022-10-11T01:46:54.843Z,80.37
2022-10-11T01:48:03.977Z,80.29
2022-10-11T01:49:06.773Z,80.32
2022-10-11T01:50:31.426Z,80.29
2022-10-11T01:51:37.487Z,80.05
2022-10-11T01:52:44.491Z,80.28
2022-10-11T01:53:59.268Z,79.94
2022-10-11T01:55:14.025Z,79.81
2022-10-11T01:56:26.085Z,79.85
2022-10-11T01:57:46.759Z,79.50
2022-10-11T01:59:03.783Z,79.54
2022-10-11T02:00:18.037Z,79.41
2022-10-11T02:01:48.240Z,79.00
2022-10-11T02:03:06.146Z,78.62
2022-10-11T02:04:17.042Z,78.31
2022-10-11T02:05:25.136Z,78.11
2022-10-11T02:06:47.327Z,77.89
2022-10-11T02:08:31.238Z,77.71
2022-10-11T02:09:48.283Z,77.50
2022-10-11T02:11:05.775Z,77.35
2022-10-11T02:12:12.751Z,77.08
2022-10-11T02:13:38.030Z,76.89
2022-10-11T02:14:47.095Z,76.89
2022-10-11T02:15:50.659Z,76.60
2022-10-11T02:16:57.802Z,76.65
2022-10-11T02:18:05.992Z,76.78
2022-10-11T02:19:11.929Z,76.74
2022-10-11T02:20:19.876Z,76.60
2022-10-11T02:21:23.726Z,76.33
2022-10-11T02:22:34.078Z,76.49
2022-10-11T02:23:42.260Z,76.79
2022-10-11T02:24:49.189Z,76.89
2022-10-11T02:25:53.621Z,76.81
2022-10-11T02:26:57.515Z,76.94
2022-10-11T02:28:03.418Z,77.05
2022-10-11T02:29:10.304Z,77.31
2022-10-11T02:30:12.845Z,77.02
2022-10-11T02:31:17.165Z,77.16
2022-10-11T02:32:20.863Z,77.13
2022-10-11T02:33:30.071Z,77.33
2022-10-11T02:34:37.678Z,77.43
2022-10-11T02:35:46.104Z,77.47
2022-10-11T02:37:23.377Z,77.65
2022-10-11T02:38:30.338Z,77.64
2022-10-11T02:39:47.427Z,77.84
2022-10-11T02:41:05.635Z,77.62
2022-10-11T02:42:17.385Z,77.75
2022-10-11T02:43:28.332Z,77.82
2022-10-11T02:44:40.382Z,78.11
2022-10-11T02:45:49.951Z,77.84
2022-10-11T02:46:52.426Z,77.75
2022-10-11T02:47:55.009Z,77.64
2022-10-11T02:48:59.975Z,77.51
2022-10-11T02:50:02.907Z,76.98
2022-10-11T02:51:05.905Z,76.76
2022-10-11T02:52:08.140Z,76.78
2022-10-11T02:53:10.441Z,76.51
2022-10-11T02:54:12.735Z,76.27
2022-10-11T02:55:14.907Z,76.36
2022-10-11T02:56:17.191Z,76.10
2022-10-11T02:57:20.124Z,76.16
2022-10-11T02:58:23.475Z,76.12
2022-10-11T02:59:25.766Z,75.91
2022-10-11T03:00:28.114Z,75.92
2022-10-11T03:01:30.352Z,75.78
2022-10-11T03:02:33.063Z,75.72
2022-10-11T03:03:35.169Z,75.45
2022-10-11T03:04:37.563Z,75.15
2022-10-11T03:05:43.867Z,74.90
2022-10-11T03:06:46.111Z,74.96
2022-10-11T03:07:48.575Z,75.02
2022-10-11T03:08:50.704Z,74.70
2022-10-11T03:09:53.022Z,74.67
2022-10-11T03:10:55.171Z,74.43
2022-10-11T03:11:57.313Z,74.45
2022-10-11T03:13:02.604Z,74.35
2022-10-11T03:14:04.790Z,74.41
2022-10-11T03:15:07.342Z,74.27
2022-10-11T03:16:10.113Z,74.21
2022-10-11T03:17:35.014Z,73.97
2022-10-11T03:18:35.315Z,74.23
2022-10-11T03:19:39.926Z,73.88
2022-10-11T03:20:42.162Z,73.67
2022-10-11T03:21:44.720Z,73.81
2022-10-11T03:22:47.011Z,73.94
2022-10-11T03:23:49.391Z,74.03
2022-10-11T03:24:51.659Z,73.85
2022-10-11T03:25:53.835Z,74.02
2022-10-11T03:26:56.140Z,74.45
2022-10-11T03:27:58.491Z,74.39
2022-10-11T03:29:00.639Z,74.05
2022-10-11T03:30:03.674Z,73.79
2022-10-11T03:31:05.953Z,73.76
2022-10-11T03:32:08.102Z,73.86
2022-10-11T03:33:10.659Z,73.69
2022-10-11T03:34:12.853Z,73.75
2022-10-11T03:35:15.349Z,73.87
2022-10-11T03:36:17.657Z,74.08
2022-10-11T03:37:20.094Z,74.44
2022-10-11T03:38:22.799Z,74.02
2022-10-11T03:39:24.947Z,74.04
2022-10-11T03:40:27.234Z,74.07
2022-10-11T03:41:30.115Z,74.00
2022-10-11T03:42:32.277Z,74.43
2022-10-11T03:43:34.576Z,74.26
2022-10-11T03:44:36.780Z,74.25
2022-10-11T03:45:39.713Z,74.75
2022-10-11T03:46:41.860Z,74.85
2022-10-11T03:47:44.061Z,75.04
2022-10-11T03:48:46.356Z,75.11
2022-10-11T03:49:48.548Z,74.83
2022-10-11T03:50:50.740Z,74.38
2022-10-11T03:51:53.039Z,74.26
2022-10-11T03:52:55.193Z,74.16
2022-10-11T03:53:57.755Z,74.07
2022-10-11T03:54:59.909Z,74.09
2022-10-11T03:56:07.375Z,74.08
2022-10-11T03:57:10.714Z,74.07
2022-10-11T03:58:12.878Z,74.16
2022-10-11T03:59:15.046Z,74.09
2022-10-11T04:00:17.283Z,74.40
2022-10-11T04:01:19.594Z,74.58
2022-10-11T04:02:21.773Z,74.40
2022-10-11T04:03:23.993Z,74.55
2022-10-11T04:04:26.283Z,74.73
2022-10-11T04:05:28.455Z,74.90
2022-10-11T04:06:30.800Z,74.94
2022-10-11T04:07:33.351Z,74.96
2022-10-11T04:08:35.606Z,75.00
2022-10-11T04:09:38.121Z,75.23
2022-10-11T04:10:40.929Z,75.25
2022-10-11T04:11:43.077Z,75.26
2022-10-11T04:12:46.129Z,75.17
2022-10-11T04:13:48.492Z,75.21
2022-10-11T04:14:50.639Z,75.46
2022-10-11T04:15:52.909Z,75.33
2022-10-11T04:16:59.528Z,75.49
2022-10-11T04:18:02.469Z,75.53
2022-10-11T04:19:05.262Z,75.56
2022-10-11T04:20:08.044Z,75.51
2022-10-11T04:21:12.921Z,75.65
2022-10-11T04:22:15.246Z,75.68
2022-10-11T04:23:17.375Z,75.24
2022-10-11T04:24:19.846Z,75.32
2022-10-11T04:25:22.033Z,75.36
2022-10-11T04:26:24.285Z,75.59
2022-10-11T04:27:29.891Z,75.53
2022-10-11T04:28:33.143Z,75.28
2022-10-11T04:29:35.496Z,75.25
2022-10-11T04:30:37.689Z,75.47
2022-10-11T04:31:40.183Z,75.29
2022-10-11T04:32:42.703Z,75.25
2022-10-11T04:33:44.905Z,75.24
2022-10-11T04:34:47.324Z,75.23
2022-10-11T04:35:53.066Z,75.30
2022-10-11T04:36:55.241Z,75.41
2022-10-11T04:37:57.399Z,75.35
2022-10-11T04:39:01.771Z,75.61
2022-10-11T04:40:06.030Z,75.53
2022-10-11T04:41:09.982Z,75.43
2022-10-11T04:42:12.190Z,75.49
2022-10-11T04:43:16.636Z,75.55
2022-10-11T04:44:19.153Z,75.73
2022-10-11T04:45:21.825Z,75.73
2022-10-11T04:46:24.930Z,75.97
2022-10-11T04:47:27.194Z,76.06
2022-10-11T04:48:29.390Z,75.96
2022-10-11T04:49:31.701Z,76.20
2022-10-11T04:50:34.099Z,76.02
2022-10-11T04:51:36.284Z,76.02
2022-10-11T04:52:38.599Z,75.84
2022-10-11T04:53:40.775Z,76.01
2022-10-11T04:54:43.123Z,76.16
2022-10-11T04:55:45.448Z,76.16
2022-10-11T04:56:47.634Z,76.49
2022-10-11T04:57:49.815Z,76.29
2022-10-11T04:58:54.290Z,75.99
2022-10-11T04:59:56.729Z,75.87
2022-10-11T05:00:59.203Z,76.09
2022-10-11T05:02:01.464Z,75.97
2022-10-11T05:03:03.664Z,76.09
2022-10-11T05:04:05.925Z,75.90
2022-10-11T05:05:08.800Z,75.89
2022-10-11T05:06:11.236Z,76.38
2022-10-11T05:07:13.810Z,76.52
2022-10-11T05:08:16.350Z,76.68
2022-10-11T05:09:18.782Z,76.96
2022-10-11T05:10:21.040Z,77.10
2022-10-11T05:11:23.291Z,77.12
2022-10-11T05:12:25.632Z,77.32
2022-10-11T05:13:29.733Z,77.46
2022-10-11T05:14:31.939Z,77.41
2022-10-11T05:15:34.630Z,77.29
2022-10-11T05:16:36.767Z,77.23
2022-10-11T05:17:38.986Z,77.40
2022-10-11T05:18:41.439Z,77.34
2022-10-11T05:19:44.051Z,77.38
2022-10-11T05:20:46.415Z,77.29
2022-10-11T05:21:48.782Z,77.53
2022-10-11T05:22:51.191Z,77.25
2022-10-11T05:23:57.607Z,77.20
2022-10-11T05:25:00.122Z,77.21
2022-10-11T05:26:03.654Z,77.15
2022-10-11T05:27:06.020Z,77.14
2022-10-11T05:28:08.458Z,76.98
2022-10-11T05:29:10.649Z,76.84
2022-10-11T05:30:13.073Z,76.93
2022-10-11T05:31:16.403Z,77.23
2022-10-11T05:32:18.517Z,77.43
2022-10-11T05:33:21.404Z,77.69
2022-10-11T05:34:23.552Z,78.43
2022-10-11T05:35:26.061Z,77.66
2022-10-11T05:36:28.224Z,79.15
2022-10-11T05:37:30.387Z,79.46
2022-10-11T05:38:32.518Z,77.59
2022-10-11T05:39:34.856Z,76.57
2022-10-11T05:40:44.098Z,77.10
2022-10-11T05:41:46.244Z,77.71
2022-10-11T05:42:48.378Z,76.59
2022-10-11T05:43:50.598Z,76.33
2022-10-11T05:44:53.100Z,76.57
2022-10-11T05:45:55.500Z,78.25
2022-10-11T05:46:57.659Z,76.99
2022-10-11T05:47:59.954Z,76.49
2022-10-11T05:49:02.118Z,76.08
2022-10-11T05:50:04.447Z,76.38
2022-10-11T05:51:10.064Z,76.70
2022-10-11T05:52:13.242Z,77.14
2022-10-11T05:53:15.727Z,76.26
2022-10-11T05:54:18.075Z,76.47
2022-10-11T05:55:20.641Z,76.14
2022-10-11T05:56:24.785Z,76.24
2022-10-11T05:57:27.216Z,76.45
2022-10-11T05:58:29.444Z,76.06
2022-10-11T05:59:31.604Z,76.20
2022-10-11T06:00:40.431Z,76.00
2022-10-11T06:01:42.689Z,75.82
2022-10-11T06:02:45.205Z,76.21
2022-10-11T06:03:47.691Z,76.92
2022-10-11T06:04:50.308Z,76.80
2022-10-11T06:05:56.733Z,76.38
2022-10-11T06:06:59.407Z,76.37
2022-10-11T06:08:02.949Z,75.90
2022-10-11T06:09:05.254Z,76.09
2022-10-11T06:10:08.210Z,76.59
2022-10-11T06:11:15.084Z,75.92
2022-10-11T06:12:17.780Z,76.83
2022-10-11T06:13:19.967Z,76.00
2022-10-11T06:14:22.346Z,75.87
2022-10-11T06:15:25.163Z,77.98
2022-10-11T06:16:27.796Z,76.50
2022-10-11T06:17:29.920Z,75.56
2022-10-11T06:18:32.478Z,75.60
2022-10-11T06:19:34.655Z,75.66
2022-10-11T06:20:37.179Z,75.53
2022-10-11T06:21:39.826Z,75.28
2022-10-11T06:22:42.680Z,74.98
2022-10-11T06:23:48.737Z,74.74
2022-10-11T06:24:50.914Z,75.12
2022-10-11T06:25:57.561Z,75.15
2022-10-11T06:27:00.443Z,75.56
2022-10-11T06:28:03.062Z,75.59
2022-10-11T06:29:05.964Z,75.60
2022-10-11T06:30:08.949Z,75.60
2022-10-11T06:31:12.203Z,75.50
2022-10-11T06:32:14.429Z,75.71
2022-10-11T06:33:31.789Z,76.01
2022-10-11T06:34:34.125Z,75.83
2022-10-11T06:35:36.260Z,75.70
2022-10-11T06:36:38.618Z,75.32
2022-10-11T06:37:40.773Z,74.91
2022-10-11T06:38:45.212Z,75.02
2022-10-11T06:39:47.847Z,75.12
2022-10-11T06:40:49.973Z,75.23
2022-10-11T06:41:52.505Z,75.33
2022-10-11T06:42:54.639Z,75.41
2022-10-11T06:43:57.375Z,75.41
2022-10-11T06:44:59.750Z,75.62
2022-10-11T06:46:02.164Z,75.72
2022-10-11T06:47:06.759Z,75.43
2022-10-11T06:48:09.380Z,75.73
2022-10-11T06:49:11.503Z,75.83
2022-10-11T06:50:13.782Z,75.56
2022-10-11T06:51:19.275Z,75.54
2022-10-11T06:52:21.691Z,75.51
2022-10-11T06:53:23.834Z,75.34
2022-10-11T06:54:26.763Z,75.00
2022-10-11T06:55:28.956Z,74.73
2022-10-11T06:56:31.611Z,74.10
2022-10-11T06:57:33.781Z,73.60
2022-10-11T06:58:37.127Z,73.13
2022-10-11T06:59:39.317Z,72.82
2022-10-11T07:00:41.641Z,72.01
2022-10-11T07:01:43.996Z,70.10
2022-10-11T07:02:47.945Z,69.44
2022-10-11T07:03:52.349Z,68.25
2022-10-11T07:04:54.955Z,67.41
2022-10-11T07:06:08.024Z,66.41
2022-10-11T07:07:13.645Z,65.60
2022-10-11T07:08:15.779Z,64.78
2022-10-11T07:09:18.062Z,64.67
2022-10-11T07:10:20.228Z,64.40
2022-10-11T07:11:25.507Z,63.67
2022-10-11T07:12:28.837Z,63.11
2022-10-11T07:13:31.219Z,62.62
2022-10-11T07:14:33.499Z,62.27
2022-10-11T07:15:41.089Z,61.83
2022-10-11T07:16:43.215Z,61.97
2022-10-11T07:17:45.573Z,61.75
2022-10-11T07:18:54.796Z,61.43
2022-10-11T07:19:59.628Z,61.70
2022-10-11T07:21:07.660Z,61.57
2022-10-11T07:22:09.877Z,61.20
2022-10-11T07:23:12.493Z,61.10
2022-10-11T07:24:14.839Z,61.20
2022-10-11T07:25:17.349Z,59.90
2022-10-11T07:26:19.976Z,59.94
2022-10-11T07:27:23.405Z,59.99
2022-10-11T07:28:26.892Z,59.57
2022-10-11T07:29:29.168Z,59.54
2022-10-11T07:30:31.636Z,59.12
2022-10-11T07:31:33.798Z,58.99
2022-10-11T07:32:36.078Z,58.39
2022-10-11T07:33:38.451Z,58.71
2022-10-11T07:34:40.802Z,58.77
2022-10-11T07:35:48.074Z,58.68
2022-10-11T07:36:50.685Z,58.60
2022-10-11T07:37:53.025Z,58.63
2022-10-11T07:38:55.186Z,58.60
2022-10-11T07:39:57.455Z,58.81
2022-10-11T07:41:00.028Z,58.81
2022-10-11T07:42:02.494Z,58.90
2022-10-11T07:43:04.628Z,59.24
2022-10-11T07:44:06.833Z,59.54
2022-10-11T07:45:09.337Z,59.91
2022-10-11T07:46:11.898Z,60.09
2022-10-11T07:47:14.067Z,60.17
2022-10-11T07:48:16.398Z,60.11
2022-10-11T07:49:18.560Z,59.97
2022-10-11T07:50:20.862Z,59.96
2022-10-11T07:51:24.398Z,60.37
2022-10-11T07:52:26.547Z,60.55
2022-10-11T07:53:31.243Z,60.93
2022-10-11T07:54:33.721Z,60.87
2022-10-11T07:55:40.341Z,61.07
2022-10-11T07:56:42.512Z,61.29
2022-10-11T07:57:44.666Z,61.18
2022-10-11T07:58:51.609Z,61.34
2022-10-11T07:59:53.769Z,61.84
2022-10-11T08:00:56.123Z,61.94
2022-10-11T08:01:58.491Z,61.79
2022-10-11T08:03:07.263Z,61.70
2022-10-11T08:04:10.259Z,61.85
2022-10-11T08:05:12.699Z,62.49
2022-10-11T08:06:23.217Z,62.11
2022-10-11T08:07:26.276Z,61.26
2022-10-11T08:08:28.616Z,60.84
2022-10-11T08:09:31.735Z,60.38
2022-10-11T08:10:40.696Z,59.63
2022-10-11T08:11:45.666Z,59.53
2022-10-11T08:12:48.456Z,59.33
2022-10-11T08:13:53.340Z,60.36
2022-10-11T08:14:55.969Z,60.18
2022-10-11T08:15:58.515Z,59.89
2022-10-11T08:17:03.432Z,59.91
2022-10-11T08:18:05.633Z,59.75
2022-10-11T08:19:07.883Z,60.09
2022-10-11T08:20:10.421Z,60.05
2022-10-11T08:21:16.895Z,59.94
2022-10-11T08:22:19.121Z,59.40
2022-10-11T08:23:21.385Z,59.87
2022-10-11T08:24:24.993Z,59.78
2022-10-11T08:25:27.212Z,59.31
2022-10-11T08:26:32.427Z,59.38
2022-10-11T08:27:34.838Z,60.15
2022-10-11T08:28:37.289Z,60.41
2022-10-11T08:29:39.569Z,60.19
2022-10-11T08:30:48.016Z,59.91
2022-10-11T08:31:52.938Z,59.88
2022-10-11T08:32:55.336Z,59.42
2022-10-11T08:33:59.827Z,59.50
2022-10-11T08:35:02.186Z,60.03
2022-10-11T08:36:07.168Z,59.63
2022-10-11T08:37:12.524Z,59.21
2022-10-11T08:38:15.506Z,59.21
2022-10-11T08:39:17.737Z,58.81
2022-10-11T08:40:22.250Z,58.55
2022-10-11T08:41:27.830Z,57.94
2022-10-11T08:42:48.861Z,57.79
2022-10-11T08:44:26.484Z,57.30
2022-10-11T08:45:35.428Z,56.44
2022-10-11T08:46:42.219Z,56.35
2022-10-11T08:47:45.884Z,56.04
2022-10-11T08:48:52.091Z,56.13
2022-10-11T08:49:55.183Z,55.47
2022-10-11T08:51:01.165Z,55.07
2022-10-11T08:52:13.686Z,55.48
2022-10-11T08:53:48.009Z,55.40
2022-10-11T08:55:04.657Z,55.89
2022-10-11T08:56:09.405Z,55.49
2022-10-11T08:57:16.264Z,55.30
2022-10-11T08:58:42.436Z,54.97
2022-10-11T08:59:52.311Z,54.45
2022-10-11T09:00:56.623Z,54.54
2022-10-11T09:02:13.620Z,54.69
2022-10-11T09:03:31.466Z,54.93
2022-10-11T09:04:34.744Z,54.83
2022-10-11T09:05:48.501Z,54.42
2022-10-11T09:07:04.558Z,53.95
2022-10-11T09:08:25.594Z,54.00
2022-10-11T09:10:27.990Z,53.95
2022-10-11T09:11:55.102Z,54.70
2022-10-11T09:13:17.643Z,55.68
2022-10-11T09:14:38.373Z,55.92
2022-10-11T09:15:55.422Z,56.83
2022-10-11T09:17:07.606Z,56.96
2022-10-11T09:18:18.664Z,56.83
2022-10-11T09:19:27.412Z,56.97
2022-10-11T09:21:00.731Z,57.24
2022-10-11T09:22:17.004Z,58.07
2022-10-11T09:23:35.388Z,58.55
2022-10-11T09:25:12.794Z,58.55
2022-10-11T09:26:23.133Z,58.36
2022-10-11T09:28:05.647Z,57.52
2022-10-11T09:29:31.385Z,57.39
2022-10-11T09:30:40.189Z,56.16
2022-10-11T09:31:48.148Z,56.02
2022-10-11T09:33:03.890Z,55.85
2022-10-11T09:34:12.059Z,56.54
2022-10-11T09:35:14.542Z,57.03
2022-10-11T09:36:19.972Z,57.00
2022-10-11T09:37:42.005Z,56.95
2022-10-11T09:39:04.325Z,56.39
2022-10-11T09:40:35.104Z,55.66
2022-10-11T09:42:05.562Z,55.72
2022-10-11T09:43:09.306Z,56.37
2022-10-11T09:44:23.522Z,56.09
2022-10-11T09:45:25.832Z,55.90
2022-10-11T09:46:44.621Z,55.94
2022-10-11T09:47:48.362Z,55.09
2022-10-11T09:48:51.938Z,54.55
2022-10-11T09:50:15.655Z,55.47
2022-10-11T09:51:21.522Z,55.80
2022-10-11T09:52:25.464Z,57.59
2022-10-11T09:53:59.464Z,57.38
2022-10-11T09:55:02.834Z,57.45
2022-10-11T09:56:05.680Z,57.21
2022-10-11T09:57:23.615Z,56.93
2022-10-11T09:58:35.335Z,56.42
2022-10-11T09:59:37.643Z,56.39
2022-10-11T10:00:39.806Z,56.05
2022-10-11T10:01:42.066Z,56.75
2022-10-11T10:02:53.246Z,56.49
2022-10-11T10:04:17.015Z,56.08
2022-10-11T10:05:22.606Z,55.57
2022-10-11T10:06:27.550Z,55.04
2022-10-11T10:07:32.479Z,54.96
2022-10-11T10:08:35.693Z,54.95
2022-10-11T10:09:37.997Z,53.68
2022-10-11T10:10:55.791Z,53.27
2022-10-11T10:12:12.358Z,53.66
2022-10-11T10:13:22.353Z,53.47
2022-10-11T10:14:28.234Z,53.80
2022-10-11T10:15:49.237Z,53.21
2022-10-11T10:17:06.305Z,53.33
2022-10-11T10:18:22.384Z,53.73
2022-10-11T10:19:25.449Z,53.31
2022-10-11T10:20:33.512Z,51.91
2022-10-11T10:21:46.583Z,51.32
2022-10-11T10:22:49.173Z,51.03
2022-10-11T10:23:55.382Z,51.14
2022-10-11T10:25:02.261Z,51.83
2022-10-11T10:26:13.639Z,52.54
2022-10-11T10:27:24.687Z,53.11
2022-10-11T10:28:27.543Z,52.46
2022-10-11T10:29:29.843Z,52.75
2022-10-11T10:30:35.585Z,52.76
2022-10-11T10:32:12.760Z,52.56
2022-10-11T10:33:13.057Z,52.11
2022-10-11T10:34:19.417Z,51.92
2022-10-11T10:35:41.288Z,51.87
2022-10-11T10:36:47.605Z,51.82
2022-10-11T10:38:05.318Z,51.78
2022-10-11T10:39:18.425Z,50.56
2022-10-11T10:40:25.560Z,49.79
2022-10-11T10:41:27.841Z,49.57
2022-10-11T10:42:30.025Z,49.38
2022-10-11T10:43:37.586Z,49.22
2022-10-11T10:44:39.852Z,49.70
2022-10-11T10:46:08.498Z,49.47
2022-10-11T10:47:26.011Z,49.52
2022-10-11T10:49:19.062Z,49.73
2022-10-11T10:50:16.256Z,50.21
2022-10-11T10:51:41.220Z,50.19
2022-10-11T10:53:05.229Z,50.56
2022-10-11T10:54:44.385Z,51.00
2022-10-11T10:55:59.889Z,51.61
2022-10-11T10:57:10.056Z,51.82
2022-10-11T10:58:34.263Z,50.63
2022-10-11T11:00:00.148Z,50.31
2022-10-11T11:01:24.004Z,51.26
2022-10-11T11:02:52.587Z,51.63
2022-10-11T11:04:10.067Z,51.09
2022-10-11T11:05:12.519Z,50.21
2022-10-11T11:06:38.591Z,50.05
2022-10-11T11:08:06.878Z,50.48
2022-10-11T11:09:29.056Z,50.73
2022-10-11T11:10:40.092Z,50.70
2022-10-11T11:11:49.078Z,50.57
2022-10-11T11:13:14.319Z,50.58
2022-10-11T11:14:28.474Z,50.33
2022-10-11T11:15:40.892Z,51.06
2022-10-11T11:17:17.508Z,51.39
2022-10-11T11:18:22.754Z,51.75
2022-10-11T11:19:36.985Z,51.88
2022-10-11T11:20:55.355Z,51.61
2022-10-11T11:22:30.499Z,51.23
2022-10-11T11:23:43.819Z,51.04
2022-10-11T11:24:57.811Z,50.70
2022-10-11T11:26:18.245Z,50.00
2022-10-11T11:27:54.106Z,49.31
2022-10-11T11:28:59.205Z,48.46
2022-10-11T11:30:14.477Z,48.23
2022-10-11T11:31:36.384Z,48.57
2022-10-11T11:32:57.100Z,48.91
2022-10-11T11:34:13.946Z,48.28
2022-10-11T11:35:23.935Z,48.63
2022-10-11T11:36:44.303Z,48.46
2022-10-11T11:37:48.494Z,49.40
2022-10-11T11:39:01.735Z,50.00
2022-10-11T11:40:31.783Z,51.33
2022-10-11T11:41:47.730Z,51.68
2022-10-11T11:43:06.624Z,52.22
2022-10-11T11:44:27.318Z,52.69
2022-10-11T11:45:54.866Z,52.68
2022-10-11T11:47:03.129Z,52.84
2022-10-11T11:48:24.812Z,52.91
2022-10-11T11:49:50.100Z,52.89
2022-10-11T11:51:30.539Z,52.44
2022-10-11T11:52:44.084Z,52.12
2022-10-11T11:53:52.502Z,52.29
2022-10-11T11:55:03.817Z,51.55
2022-10-11T11:56:34.001Z,50.86
2022-10-11T11:58:24.052Z,51.04
2022-10-11T12:00:03.986Z,51.15
2022-10-11T12:01:31.505Z,51.28
2022-10-11T12:02:47.841Z,50.91
2022-10-11T12:03:55.172Z,51.13
2022-10-11T12:04:58.134Z,50.10
2022-10-11T12:06:35.945Z,49.17
2022-10-11T12:07:51.781Z,49.12
2022-10-11T12:09:22.757Z,48.95
2022-10-11T12:10:33.636Z,48.38
2022-10-11T12:11:44.459Z,47.93
2022-10-11T12:12:47.339Z,47.33
2022-10-11T12:13:52.162Z,47.16
2022-10-11T12:15:10.109Z,46.86
2022-10-11T12:16:15.624Z,46.87
2022-10-11T12:17:21.731Z,46.56
2022-10-11T12:18:24.161Z,46.22
2022-10-11T12:19:27.446Z,46.06
2022-10-11T12:20:29.966Z,45.83
2022-10-11T12:21:39.221Z,46.04
2022-10-11T12:22:58.300Z,46.12
2022-10-11T12:24:13.095Z,46.10
2022-10-11T12:25:18.493Z,45.39
2022-10-11T12:26:36.899Z,44.10
2022-10-11T12:27:46.332Z,44.06
2022-10-11T12:29:28.834Z,43.94
2022-10-11T12:30:53.353Z,43.60
2022-10-11T12:31:58.442Z,43.03
2022-10-11T12:33:15.240Z,43.00
2022-10-11T12:34:34.836Z,43.09
2022-10-11T12:35:40.035Z,43.41
2022-10-11T12:36:44.294Z,44.02
2022-10-11T12:37:51.439Z,44.37
2022-10-11T12:39:18.425Z,44.81
2022-10-11T12:40:42.367Z,45.15
2022-10-11T12:41:47.277Z,45.27
2022-10-11T12:43:14.292Z,45.86
2022-10-11T12:44:22.844Z,46.01
2022-10-11T12:45:31.799Z,46.48
2022-10-11T12:46:40.899Z,46.78
2022-10-11T12:48:06.198Z,46.99
2022-10-11T12:49:33.596Z,47.42
2022-10-11T12:50:42.000Z,47.84
2022-10-11T12:52:17.925Z,48.23
2022-10-11T12:53:26.196Z,48.69
2022-10-11T12:55:05.733Z,49.30
2022-10-11T12:56:41.863Z,49.57
2022-10-11T12:58:15.117Z,49.70
2022-10-11T12:59:21.370Z,49.92
2022-10-11T13:00:31.101Z,50.17
2022-10-11T13:01:37.430Z,50.19
2022-10-11T13:02:44.469Z,50.13
2022-10-11T13:04:00.024Z,50.24
2022-10-11T13:05:22.401Z,50.22
2022-10-11T13:06:28.133Z,50.35
2022-10-11T13:07:31.048Z,50.28
2022-10-11T13:08:37.230Z,50.21
2022-10-11T13:09:45.309Z,50.13
2022-10-11T13:10:51.070Z,50.34
2022-10-11T13:12:03.070Z,50.29
2022-10-11T13:13:15.695Z,50.16
2022-10-11T13:14:21.596Z,49.86
2022-10-11T13:15:24.462Z,49.91
2022-10-11T13:16:45.958Z,49.85
2022-10-11T13:17:54.345Z,49.95
2022-10-11T13:18:59.519Z,49.84
2022-10-11T13:20:08.666Z,49.62
2022-10-11T13:21:36.148Z,49.52
2022-10-11T13:22:40.289Z,49.08
2022-10-11T13:23:42.452Z,48.79
2022-10-11T13:24:45.109Z,47.67
2022-10-11T13:25:48.131Z,46.66
2022-10-11T13:26:54.585Z,46.69
2022-10-11T13:27:59.484Z,46.69
2022-10-11T13:29:01.920Z,46.77
2022-10-11T13:30:11.306Z,46.88
2022-10-11T13:31:13.496Z,47.08
2022-10-11T13:32:26.232Z,46.85
2022-10-11T13:33:35.708Z,46.84
2022-10-11T13:34:40.323Z,47.09
2022-10-11T13:35:42.513Z,47.26
2022-10-11T13:36:44.993Z,46.65
2022-10-11T13:37:49.009Z,46.61
2022-10-11T13:38:58.075Z,46.63
2022-10-11T13:40:00.346Z,46.69
2022-10-11T13:41:08.884Z,46.35
2022-10-11T13:42:16.910Z,46.64
2022-10-11T13:43:27.966Z,46.83
2022-10-11T13:44:33.029Z,46.93
2022-10-11T13:45:36.994Z,46.84
2022-10-11T13:46:41.690Z,46.61
2022-10-11T13:47:44.728Z,46.74
2022-10-11T13:48:56.276Z,46.65
2022-10-11T13:50:33.559Z,46.53
2022-10-11T13:51:37.639Z,46.52
2022-10-11T13:52:58.731Z,46.67
2022-10-11T13:54:02.526Z,46.45
2022-10-11T13:55:04.592Z,46.23
2022-10-11T13:56:09.201Z,46.22
2022-10-11T13:57:13.353Z,46.14
2022-10-11T13:58:20.148Z,45.79
2022-10-11T13:59:25.669Z,45.45
2022-10-11T14:00:39.131Z,45.46
2022-10-11T14:01:45.284Z,45.54
2022-10-11T14:02:56.205Z,45.29
2022-10-11T14:04:04.888Z,45.68
2022-10-11T14:05:07.579Z,45.53
2022-10-11T14:06:10.329Z,45.43
2022-10-11T14:07:29.755Z,45.58
2022-10-11T14:08:38.866Z,44.93
2022-10-11T14:09:47.219Z,45.27
2022-10-11T14:10:54.207Z,45.32
2022-10-11T14:12:35.559Z,44.20
2022-10-11T14:13:39.056Z,43.98
2022-10-11T14:14:42.847Z,44.16
2022-10-11T14:15:45.085Z,44.49
2022-10-11T14:16:58.644Z,44.77
2022-10-11T14:18:03.253Z,44.74
2022-10-11T14:19:10.726Z,44.78
2022-10-11T14:20:18.275Z,44.64
2022-10-11T14:21:20.388Z,44.48
2022-10-11T14:22:22.541Z,44.63
2022-10-11T14:23:24.747Z,44.66
2022-10-11T14:24:27.124Z,44.89
2022-10-11T14:25:29.714Z,44.82
2022-10-11T14:26:41.067Z,44.87
2022-10-11T14:27:43.337Z,44.92
2022-10-11T14:28:51.370Z,45.08
2022-10-11T14:30:23.594Z,45.10
2022-10-11T14:31:16.341Z,45.38
2022-10-11T14:32:24.259Z,45.42
2022-10-11T14:33:26.629Z,45.47
2022-10-11T14:34:29.786Z,45.51
2022-10-11T14:35:32.612Z,45.64
2022-10-11T14:36:34.782Z,45.63
2022-10-11T14:37:37.045Z,45.38
2022-10-11T14:38:39.257Z,45.71